KGFL/GFL METAR and TAF weather

Enter ICAO airport designator
Station Type Date Time Source
KGFL METAR 2022/01/28 23:53 UTC NOAA

KGFL 282353Z AUTO 05005KT 10SM OVC029 M11/M14 A3019 RMK AO2 SLP236 60000 T11061144 11011 21106 51018


Station Type Date Time Source
KGFL Decoded METAR 2022/01/28 23:53 UTC NOAA

FLOYD BENNETT MEMORIAL AIRPORT , NY, United States (KGFL) 43-20N 073-37W 103M
Jan 28, 2022 - 06:53 PM EST / 2022.01.28 2353 UTC
Wind: from the NE (050 degrees) at 6 MPH (5 KT):0
Visibility: 10 mile(s):0
Sky conditions: overcast
Temperature: 12.9 F (-10.6 C)
Windchill: 3 F (-16 C):1
Dew Point: 6.1 F (-14.4 C)
Relative Humidity: 73%
Pressure (altimeter): 30.19 in. Hg (1022 hPa)
Pressure tendency: 0.05 inches (1.8 hPa) higher than three hours ago
ob: KGFL 282353Z AUTO 05005KT 10SM OVC029 M11/M14 A3019 RMK AO2 SLP236 60000 T11061144 11011 21106 51018
cycle: 0

Station Type Date Time Source
KGFL TAF 2022/01/28 20:51 UTC NOAA

TAF
AMD KGFL 281948Z 2820/2918 18004KT P6SM VCSH OVC020
TEMPO 2820/2822 3SM BR OVC035
FM282200 03007KT P6SM BKN060
FM291100 01009KT P6SM OVC060

Example: see airport list